createdAt,value
2023-05-22T00:00:29.037Z,17.40
2023-05-22T00:01:02.181Z,17.40
2023-05-22T00:01:34.081Z,17.40
2023-05-22T00:02:06.034Z,17.40
2023-05-22T00:02:42.850Z,17.40
2023-05-22T00:03:15.169Z,17.30
2023-05-22T00:03:48.476Z,17.30
2023-05-22T00:04:21.687Z,17.20
2023-05-22T00:04:54.177Z,17.20
2023-05-22T00:05:26.038Z,17.10
2023-05-22T00:06:00.286Z,17.10
2023-05-22T00:06:33.945Z,17.10
2023-05-22T00:07:07.384Z,17.00
2023-05-22T00:07:39.726Z,17.00
2023-05-22T00:08:11.822Z,17.00
2023-05-22T00:08:44.761Z,17.00
2023-05-22T00:09:16.648Z,17.10
2023-05-22T00:09:48.512Z,17.10
2023-05-22T00:10:21.390Z,17.10
2023-05-22T00:10:53.328Z,17.10
2023-05-22T00:11:25.855Z,17.10
2023-05-22T00:11:58.738Z,17.10
2023-05-22T00:12:30.640Z,17.10
2023-05-22T00:13:02.453Z,17.10
2023-05-22T00:13:35.243Z,17.10
2023-05-22T00:14:07.236Z,17.10
2023-05-22T00:14:39.084Z,17.10
2023-05-22T00:15:14.046Z,17.10
2023-05-22T00:15:45.947Z,17.20
2023-05-22T00:16:17.800Z,17.10
2023-05-22T00:16:50.175Z,17.20
2023-05-22T00:17:23.767Z,17.20
2023-05-22T00:17:55.739Z,17.20
2023-05-22T00:18:27.802Z,17.20
2023-05-22T00:19:01.842Z,17.20
2023-05-22T00:19:33.829Z,17.20
2023-05-22T00:20:10.603Z,17.20
2023-05-22T00:20:46.335Z,17.20
2023-05-22T00:21:18.459Z,17.20
2023-05-22T00:21:51.784Z,17.20
2023-05-22T00:22:23.634Z,17.20
2023-05-22T00:22:56.816Z,17.20
2023-05-22T00:23:29.919Z,17.20
2023-05-22T00:24:01.817Z,17.20
2023-05-22T00:24:33.644Z,17.10
2023-05-22T00:25:07.699Z,17.10
2023-05-22T00:25:40.199Z,17.10
2023-05-22T00:26:15.612Z,17.10
2023-05-22T00:26:48.392Z,17.10
2023-05-22T00:27:20.200Z,17.00
2023-05-22T00:27:52.020Z,17.00
2023-05-22T00:28:24.802Z,17.00
2023-05-22T00:28:56.647Z,17.00
2023-05-22T00:29:28.460Z,17.00
2023-05-22T00:30:01.732Z,17.00
2023-05-22T00:30:35.215Z,17.00
2023-05-22T00:31:07.071Z,17.00
2023-05-22T00:31:39.843Z,17.00
2023-05-22T00:32:11.696Z,17.00
2023-05-22T00:32:43.570Z,17.00
2023-05-22T00:33:16.459Z,17.00
2023-05-22T00:33:48.493Z,17.00
2023-05-22T00:34:20.393Z,17.00
2023-05-22T00:34:53.419Z,17.00
2023-05-22T00:35:25.876Z,17.00
2023-05-22T00:35:57.738Z,17.00
2023-05-22T00:36:30.730Z,17.00
2023-05-22T00:37:02.545Z,17.00
2023-05-22T00:37:34.434Z,17.00
2023-05-22T00:38:07.282Z,17.00
2023-05-22T00:38:39.134Z,17.00
2023-05-22T00:39:11.252Z,17.00
2023-05-22T00:39:43.093Z,17.00
2023-05-22T00:40:16.558Z,17.00
2023-05-22T00:40:48.388Z,17.00
2023-05-22T00:41:21.606Z,16.90
2023-05-22T00:41:53.562Z,17.00
2023-05-22T00:42:26.409Z,16.90
2023-05-22T00:42:58.241Z,16.90
2023-05-22T00:43:30.369Z,16.90
2023-05-22T00:44:03.564Z,16.90
2023-05-22T00:44:35.567Z,16.90
2023-05-22T00:45:09.745Z,16.90
2023-05-22T00:45:43.886Z,16.80
2023-05-22T00:46:15.730Z,16.80
2023-05-22T00:46:47.610Z,16.80
2023-05-22T00:47:21.138Z,16.90
2023-05-22T00:47:53.795Z,16.90
2023-05-22T00:48:26.015Z,16.90
2023-05-22T00:48:58.943Z,16.90
2023-05-22T00:49:30.840Z,16.80
2023-05-22T00:50:03.207Z,16.80
2023-05-22T00:50:35.081Z,16.80
2023-05-22T00:51:08.223Z,16.80
2023-05-22T00:51:40.226Z,16.80
2023-05-22T00:52:14.428Z,16.80
2023-05-22T00:52:47.997Z,16.80
2023-05-22T00:53:21.440Z,16.70
2023-05-22T00:53:54.535Z,16.70
2023-05-22T00:54:27.416Z,16.70
2023-05-22T00:54:59.995Z,16.70
2023-05-22T00:55:31.850Z,16.70
2023-05-22T00:56:06.976Z,16.70
2023-05-22T00:56:41.076Z,16.70
2023-05-22T00:57:13.245Z,16.70
2023-05-22T00:57:46.055Z,16.70
2023-05-22T00:58:19.696Z,16.70
2023-05-22T00:58:51.552Z,16.70
2023-05-22T00:59:24.020Z,16.70
2023-05-22T00:59:57.406Z,16.70
2023-05-22T01:00:29.876Z,16.70
2023-05-22T01:01:03.386Z,16.60
2023-05-22T01:01:38.691Z,16.60
2023-05-22T01:02:10.626Z,16.60
2023-05-22T01:02:43.107Z,16.60
2023-05-22T01:03:17.003Z,16.50
2023-05-22T01:03:50.667Z,16.50
2023-05-22T01:04:22.876Z,16.50
2023-05-22T01:04:58.032Z,16.50
2023-05-22T01:05:30.095Z,16.50
2023-05-22T01:06:02.060Z,16.40
2023-05-22T01:06:34.244Z,16.40
2023-05-22T01:07:07.347Z,16.40
2023-05-22T01:07:39.215Z,16.40
2023-05-22T01:08:11.889Z,16.50
2023-05-22T01:08:44.975Z,16.50
2023-05-22T01:09:16.899Z,16.40
2023-05-22T01:09:48.780Z,16.40
2023-05-22T01:10:21.729Z,16.40
2023-05-22T01:11:04.611Z,16.40
2023-05-22T01:11:46.319Z,16.40
2023-05-22T01:12:32.722Z,16.40
2023-05-22T01:13:13.543Z,16.40
2023-05-22T01:13:55.963Z,16.40
2023-05-22T01:14:34.955Z,16.40
2023-05-22T01:15:17.439Z,16.40
2023-05-22T01:15:58.207Z,16.50
2023-05-22T01:16:41.704Z,16.50
2023-05-22T01:17:23.371Z,16.50
2023-05-22T01:18:11.083Z,16.50
2023-05-22T01:18:48.286Z,16.60
2023-05-22T01:19:50.462Z,16.50
2023-05-22T01:20:30.488Z,16.50
2023-05-22T01:21:10.135Z,16.40
2023-05-22T01:21:47.765Z,16.40
2023-05-22T01:22:33.928Z,16.40
2023-05-22T01:23:55.234Z,16.40
2023-05-22T01:24:51.859Z,16.40
2023-05-22T01:25:41.222Z,16.40
2023-05-22T01:26:23.341Z,16.40
2023-05-22T01:27:25.664Z,16.40
2023-05-22T01:28:16.418Z,16.40
2023-05-22T01:29:15.614Z,16.40
2023-05-22T01:29:56.464Z,16.30
2023-05-22T01:30:48.506Z,16.30
2023-05-22T01:31:25.928Z,16.20
2023-05-22T01:32:00.520Z,16.20
2023-05-22T01:32:35.749Z,16.10
2023-05-22T01:33:09.545Z,16.20
2023-05-22T01:33:46.282Z,16.20
2023-05-22T01:34:20.877Z,16.10
2023-05-22T01:34:56.068Z,16.10
2023-05-22T01:35:28.682Z,16.10
2023-05-22T01:36:03.858Z,16.10
2023-05-22T01:36:37.267Z,16.10
2023-05-22T01:37:10.916Z,16.10
2023-05-22T01:37:44.678Z,16.10
2023-05-22T01:38:17.290Z,16.10
2023-05-22T01:38:49.750Z,16.10
2023-05-22T01:39:23.675Z,16.10
2023-05-22T01:39:55.925Z,16.10
2023-05-22T01:40:29.091Z,16.10
2023-05-22T01:41:01.555Z,16.10
2023-05-22T01:41:35.087Z,16.10
2023-05-22T01:42:07.761Z,16.10
2023-05-22T01:42:41.229Z,16.10
2023-05-22T01:43:14.497Z,16.20
2023-05-22T01:43:46.614Z,16.20
2023-05-22T01:44:18.510Z,16.20
2023-05-22T01:44:51.551Z,16.20
2023-05-22T01:45:23.718Z,16.20
2023-05-22T01:45:56.983Z,16.20
2023-05-22T01:46:30.737Z,16.20
2023-05-22T01:47:05.322Z,16.20
2023-05-22T01:47:37.214Z,16.20
2023-05-22T01:48:10.182Z,16.20
2023-05-22T01:48:42.082Z,16.20
2023-05-22T01:49:13.972Z,16.20
2023-05-22T01:49:48.187Z,16.20
2023-05-22T01:50:20.999Z,16.20
2023-05-22T01:50:53.920Z,16.10
2023-05-22T01:51:38.051Z,16.10
2023-05-22T01:52:20.989Z,16.10
2023-05-22T01:52:59.644Z,16.00
2023-05-22T01:53:39.827Z,16.00
2023-05-22T01:54:18.122Z,16.00
2023-05-22T01:54:58.210Z,16.00
2023-05-22T01:55:36.047Z,15.90
2023-05-22T01:56:12.815Z,15.90
2023-05-22T01:56:50.068Z,15.90
2023-05-22T01:57:29.168Z,15.90
2023-05-22T01:58:12.497Z,15.90
2023-05-22T01:58:49.533Z,15.90
2023-05-22T01:59:30.755Z,16.00
2023-05-22T02:00:09.565Z,16.00
2023-05-22T02:00:45.847Z,15.90
2023-05-22T02:01:23.369Z,15.90
2023-05-22T02:01:55.683Z,15.90
2023-05-22T02:02:28.412Z,16.00
2023-05-22T02:03:09.694Z,16.00
2023-05-22T02:03:42.476Z,16.00
2023-05-22T02:04:16.207Z,16.00
2023-05-22T02:05:01.184Z,16.00
2023-05-22T02:05:38.635Z,16.00
2023-05-22T02:06:13.623Z,16.00
2023-05-22T02:06:47.495Z,16.00
2023-05-22T02:07:22.132Z,16.00
2023-05-22T02:07:57.544Z,16.00
2023-05-22T02:08:31.992Z,16.00
2023-05-22T02:09:04.189Z,16.00
2023-05-22T02:09:37.298Z,16.00
2023-05-22T02:10:12.206Z,16.20
2023-05-22T02:10:45.010Z,16.00
2023-05-22T02:11:17.345Z,16.00
2023-05-22T02:11:50.726Z,16.10
2023-05-22T02:12:23.237Z,16.10
2023-05-22T02:12:55.568Z,16.10
2023-05-22T02:13:29.178Z,16.10
2023-05-22T02:14:01.800Z,16.10
2023-05-22T02:14:34.668Z,16.20
2023-05-22T02:15:09.652Z,16.10
2023-05-22T02:15:44.548Z,16.10
2023-05-22T02:16:21.646Z,16.10
2023-05-22T02:16:53.640Z,16.10
2023-05-22T02:17:26.017Z,16.10
2023-05-22T02:18:01.668Z,16.10
2023-05-22T02:18:33.632Z,16.10
2023-05-22T02:19:06.004Z,16.10
2023-05-22T02:19:38.908Z,16.10
2023-05-22T02:20:14.322Z,16.10
2023-05-22T02:20:46.366Z,16.10
2023-05-22T02:21:19.248Z,16.10
2023-05-22T02:21:51.251Z,16.10
2023-05-22T02:22:23.173Z,16.10
2023-05-22T02:22:55.974Z,16.10
2023-05-22T02:23:29.437Z,16.10
2023-05-22T02:24:01.786Z,16.10
2023-05-22T02:24:36.846Z,16.00
2023-05-22T02:25:14.076Z,16.10
2023-05-22T02:25:45.900Z,16.10
2023-05-22T02:26:18.700Z,16.10
2023-05-22T02:26:50.675Z,16.00
2023-05-22T02:27:23.485Z,16.00
2023-05-22T02:27:55.351Z,15.90
2023-05-22T02:28:27.386Z,15.90
2023-05-22T02:29:00.335Z,15.90
2023-05-22T02:29:32.147Z,15.80
2023-05-22T02:30:04.623Z,15.80
2023-05-22T02:30:37.473Z,15.80
2023-05-22T02:31:09.447Z,15.80
2023-05-22T02:31:42.694Z,15.80
2023-05-22T02:32:15.502Z,15.80
2023-05-22T02:32:47.350Z,15.80
2023-05-22T02:33:19.310Z,15.80
2023-05-22T02:33:52.196Z,15.80
2023-05-22T02:34:24.040Z,15.90
2023-05-22T02:34:55.862Z,15.80
2023-05-22T02:35:28.653Z,15.90
2023-05-22T02:36:00.537Z,15.90
2023-05-22T02:36:32.458Z,15.90
2023-05-22T02:37:05.978Z,15.90
2023-05-22T02:37:38.558Z,15.90
2023-05-22T02:38:10.419Z,15.90
2023-05-22T02:38:43.206Z,15.90
2023-05-22T02:39:15.001Z,15.90
2023-05-22T02:39:46.817Z,15.90
2023-05-22T02:40:19.905Z,15.90
2023-05-22T02:40:51.770Z,15.90
2023-05-22T02:41:23.621Z,15.90
2023-05-22T02:41:56.532Z,15.90
2023-05-22T02:42:28.342Z,15.90
2023-05-22T02:43:00.361Z,15.90
2023-05-22T02:43:33.176Z,15.90
2023-05-22T02:44:05.212Z,15.90
2023-05-22T02:44:37.070Z,15.90
2023-05-22T02:45:11.020Z,15.90
2023-05-22T02:45:42.894Z,15.90
2023-05-22T02:46:14.838Z,15.90
2023-05-22T02:46:49.140Z,15.90
2023-05-22T02:47:21.150Z,16.00
2023-05-22T02:47:53.012Z,16.00
2023-05-22T02:48:25.894Z,16.00
2023-05-22T02:48:57.731Z,16.00
2023-05-22T02:49:29.598Z,16.00
2023-05-22T02:50:01.546Z,16.00
2023-05-22T02:50:34.333Z,16.00
2023-05-22T02:51:06.401Z,16.00
2023-05-22T02:51:38.241Z,16.00
2023-05-22T02:52:11.110Z,16.00
2023-05-22T02:52:45.104Z,16.00
2023-05-22T02:53:18.010Z,16.00
2023-05-22T02:53:49.905Z,16.00
2023-05-22T02:54:21.788Z,16.10
2023-05-22T02:54:54.589Z,16.10
2023-05-22T02:55:26.429Z,16.10
2023-05-22T02:55:58.892Z,16.10
2023-05-22T02:56:31.795Z,16.10
2023-05-22T02:57:04.052Z,16.10
2023-05-22T02:57:35.890Z,16.10
2023-05-22T02:58:11.130Z,16.10
2023-05-22T02:58:42.974Z,16.10
2023-05-22T02:59:14.753Z,16.10
2023-05-22T02:59:47.591Z,16.10
2023-05-22T03:00:20.590Z,16.10
2023-05-22T03:00:52.939Z,16.10
2023-05-22T03:01:27.063Z,16.10
2023-05-22T03:02:00.542Z,16.10
2023-05-22T03:02:32.609Z,16.10
2023-05-22T03:03:05.587Z,16.00
2023-05-22T03:03:37.686Z,16.00
2023-05-22T03:04:12.689Z,16.00
2023-05-22T03:04:46.388Z,16.00
2023-05-22T03:05:18.421Z,15.90
2023-05-22T03:05:53.634Z,15.90
2023-05-22T03:06:26.450Z,15.90
2023-05-22T03:06:59.030Z,15.80
2023-05-22T03:07:31.401Z,15.80
2023-05-22T03:08:04.313Z,15.80
2023-05-22T03:08:41.412Z,15.80
2023-05-22T03:09:13.297Z,15.80
2023-05-22T03:09:46.132Z,15.80
2023-05-22T03:10:18.025Z,15.80
2023-05-22T03:10:50.451Z,15.80
2023-05-22T03:11:23.246Z,15.80
2023-05-22T03:11:55.277Z,15.80
2023-05-22T03:12:27.114Z,15.80
2023-05-22T03:12:59.897Z,15.80
2023-05-22T03:13:31.709Z,15.80
2023-05-22T03:14:03.770Z,15.80
2023-05-22T03:14:36.581Z,15.80
2023-05-22T03:15:10.622Z,15.80
2023-05-22T03:15:42.443Z,15.80
2023-05-22T03:16:14.295Z,15.80
2023-05-22T03:16:47.290Z,15.80
2023-05-22T03:17:20.581Z,15.80
2023-05-22T03:17:52.455Z,15.80
2023-05-22T03:18:27.569Z,15.80
2023-05-22T03:19:08.607Z,15.80
2023-05-22T03:19:40.561Z,15.80
2023-05-22T03:20:16.658Z,15.80
2023-05-22T03:20:48.672Z,15.80
2023-05-22T03:21:20.510Z,15.80
2023-05-22T03:21:53.321Z,15.80
2023-05-22T03:22:25.174Z,15.80
2023-05-22T03:22:56.987Z,15.80
2023-05-22T03:23:29.821Z,15.70
2023-05-22T03:24:01.679Z,15.70
2023-05-22T03:24:33.500Z,15.70
2023-05-22T03:25:09.318Z,15.70
2023-05-22T03:25:41.160Z,15.70
2023-05-22T03:26:13.058Z,15.70
2023-05-22T03:26:46.012Z,15.70
2023-05-22T03:27:17.970Z,15.70
2023-05-22T03:27:49.812Z,15.60
2023-05-22T03:28:22.628Z,15.60
2023-05-22T03:28:54.531Z,15.60
2023-05-22T03:29:26.388Z,15.40
2023-05-22T03:29:59.178Z,15.60
2023-05-22T03:30:31.086Z,15.60
2023-05-22T03:31:03.068Z,15.60
2023-05-22T03:31:35.865Z,15.60
2023-05-22T03:32:08.159Z,15.60
2023-05-22T03:32:41.586Z,15.60
2023-05-22T03:33:14.533Z,15.60
2023-05-22T03:33:46.377Z,15.60
2023-05-22T03:34:18.212Z,15.70
2023-05-22T03:34:51.048Z,15.60
2023-05-22T03:35:24.688Z,15.70
2023-05-22T03:35:56.720Z,15.70
2023-05-22T03:36:32.305Z,15.70
2023-05-22T03:37:04.554Z,15.70
2023-05-22T03:37:36.421Z,15.70
2023-05-22T03:38:09.227Z,15.70
2023-05-22T03:38:41.325Z,15.70
2023-05-22T03:39:13.175Z,15.70
2023-05-22T03:39:46.218Z,15.70
2023-05-22T03:40:18.037Z,15.70
2023-05-22T03:40:49.858Z,15.70
2023-05-22T03:41:22.660Z,15.70
2023-05-22T03:41:54.507Z,15.70
2023-05-22T03:42:26.331Z,15.70
2023-05-22T03:42:59.107Z,15.70
2023-05-22T03:43:31.219Z,15.70
2023-05-22T03:44:03.302Z,15.60
2023-05-22T03:44:36.177Z,15.60
2023-05-22T03:45:08.859Z,15.60
2023-05-22T03:45:40.754Z,15.60
2023-05-22T03:46:13.873Z,15.60
2023-05-22T03:46:46.408Z,15.60
2023-05-22T03:47:18.332Z,15.70
2023-05-22T03:47:52.963Z,15.60
2023-05-22T03:48:25.021Z,15.60
2023-05-22T03:48:56.851Z,15.50
2023-05-22T03:49:29.647Z,15.50
2023-05-22T03:50:01.536Z,15.50
2023-05-22T03:50:33.428Z,15.50
2023-05-22T03:51:05.743Z,15.50
2023-05-22T03:51:38.539Z,15.50
2023-05-22T03:52:10.747Z,15.40
2023-05-22T03:52:42.577Z,15.40
2023-05-22T03:53:15.434Z,15.40
2023-05-22T03:53:47.498Z,15.40
2023-05-22T03:54:19.417Z,15.40
2023-05-22T03:54:53.410Z,15.40
2023-05-22T03:55:26.514Z,15.40
2023-05-22T03:55:59.240Z,15.40
2023-05-22T03:56:32.060Z,15.40
2023-05-22T03:57:04.439Z,15.40
2023-05-22T03:57:36.249Z,15.40
2023-05-22T03:58:09.081Z,15.40
2023-05-22T03:58:40.930Z,15.40
2023-05-22T03:59:12.750Z,15.40
2023-05-22T03:59:46.048Z,15.40
2023-05-22T04:00:19.614Z,15.50
2023-05-22T04:00:52.382Z,15.50
2023-05-22T04:01:25.215Z,15.50
2023-05-22T04:01:57.952Z,15.40
2023-05-22T04:02:30.144Z,15.40
2023-05-22T04:03:04.496Z,15.40
2023-05-22T04:03:36.529Z,15.40
2023-05-22T04:04:09.468Z,15.30
2023-05-22T04:04:42.292Z,15.30
2023-05-22T04:05:14.255Z,15.30
2023-05-22T04:05:46.341Z,15.30
2023-05-22T04:06:21.579Z,15.30
2023-05-22T04:06:53.866Z,15.30
2023-05-22T04:07:25.683Z,15.30
2023-05-22T04:07:58.600Z,15.30
2023-05-22T04:08:30.745Z,15.30
2023-05-22T04:09:02.569Z,15.40
2023-05-22T04:09:36.736Z,15.40
2023-05-22T04:10:09.217Z,15.40
2023-05-22T04:10:42.352Z,15.40
2023-05-22T04:11:15.712Z,15.40
2023-05-22T04:11:48.638Z,15.40
2023-05-22T04:12:20.478Z,15.40
2023-05-22T04:12:53.305Z,15.40
2023-05-22T04:13:25.679Z,15.40
2023-05-22T04:14:02.776Z,15.30
2023-05-22T04:14:35.644Z,15.40
2023-05-22T04:15:09.043Z,15.40
2023-05-22T04:15:41.511Z,15.30
2023-05-22T04:16:17.408Z,15.30
2023-05-22T04:16:50.508Z,15.30
2023-05-22T04:17:22.532Z,15.40
2023-05-22T04:17:55.087Z,15.40
2023-05-22T04:18:29.342Z,15.40
2023-05-22T04:19:03.105Z,15.40
2023-05-22T04:19:35.116Z,15.40
2023-05-22T04:20:09.404Z,15.40
2023-05-22T04:20:41.533Z,15.40
2023-05-22T04:21:13.782Z,15.40
2023-05-22T04:21:47.485Z,15.40
2023-05-22T04:22:19.338Z,15.50
2023-05-22T04:22:51.486Z,15.50
2023-05-22T04:23:24.324Z,15.50
2023-05-22T04:23:56.174Z,15.50
2023-05-22T04:24:28.056Z,15.50
2023-05-22T04:25:00.927Z,15.50
2023-05-22T04:25:34.251Z,15.50
2023-05-22T04:26:08.614Z,15.50
2023-05-22T04:26:42.728Z,15.50
2023-05-22T04:27:15.173Z,15.60
2023-05-22T04:27:48.909Z,15.60
2023-05-22T04:28:22.263Z,15.60
2023-05-22T04:28:54.472Z,15.60
2023-05-22T04:29:28.441Z,15.60
2023-05-22T04:30:00.601Z,15.60
2023-05-22T04:30:33.743Z,15.60
2023-05-22T04:31:07.357Z,15.60
2023-05-22T04:31:39.364Z,15.70
2023-05-22T04:32:11.475Z,15.70
2023-05-22T04:32:45.067Z,15.60
2023-05-22T04:33:18.008Z,15.70
2023-05-22T04:33:51.224Z,15.70
2023-05-22T04:34:24.492Z,15.70
2023-05-22T04:34:58.215Z,15.70
2023-05-22T04:35:30.107Z,15.70
2023-05-22T04:36:03.276Z,15.70
2023-05-22T04:36:35.846Z,15.70
2023-05-22T04:37:07.754Z,15.70
2023-05-22T04:37:42.188Z,15.80
2023-05-22T04:38:14.182Z,15.80
2023-05-22T04:38:47.501Z,15.80
2023-05-22T04:39:20.356Z,15.80
2023-05-22T04:39:53.437Z,15.80
2023-05-22T04:40:26.186Z,15.80
2023-05-22T04:41:00.306Z,15.80
2023-05-22T04:41:32.440Z,15.80
2023-05-22T04:42:05.822Z,15.80
2023-05-22T04:42:38.290Z,15.80
2023-05-22T04:43:11.525Z,15.80
2023-05-22T04:43:43.841Z,15.80
2023-05-22T04:44:15.673Z,15.80
2023-05-22T04:44:48.466Z,15.80
2023-05-22T04:45:21.150Z,15.80
2023-05-22T04:45:54.036Z,15.90
2023-05-22T04:46:28.540Z,15.80
2023-05-22T04:47:01.013Z,15.80
2023-05-22T04:47:33.046Z,15.90
2023-05-22T04:48:07.989Z,15.90
2023-05-22T04:48:40.213Z,15.90
2023-05-22T04:49:13.454Z,15.90
2023-05-22T04:49:46.570Z,15.90
2023-05-22T04:50:18.755Z,15.90
2023-05-22T04:50:50.728Z,16.00
2023-05-22T04:51:23.819Z,16.00
2023-05-22T04:51:57.257Z,16.00
2023-05-22T04:52:29.150Z,16.00
2023-05-22T04:53:04.084Z,16.00
2023-05-22T04:53:36.894Z,16.00
2023-05-22T04:54:08.806Z,16.00
2023-05-22T04:54:43.264Z,16.10
2023-05-22T04:55:15.369Z,16.10
2023-05-22T04:55:47.266Z,16.10
2023-05-22T04:56:31.803Z,16.10
2023-05-22T04:57:07.309Z,16.10
2023-05-22T04:57:40.176Z,16.10
2023-05-22T04:58:12.184Z,16.10
2023-05-22T04:58:44.988Z,16.10
2023-05-22T04:59:16.793Z,16.10
2023-05-22T04:59:48.979Z,16.10
2023-05-22T05:00:26.320Z,16.10
2023-05-22T05:00:59.050Z,16.10
2023-05-22T05:01:33.081Z,16.10
2023-05-22T05:02:06.727Z,16.10
2023-05-22T05:02:38.632Z,16.10
2023-05-22T05:03:11.756Z,16.10
2023-05-22T05:03:45.356Z,16.20
2023-05-22T05:04:18.759Z,16.20
2023-05-22T05:04:50.579Z,16.20
2023-05-22T05:05:23.523Z,16.20
2023-05-22T05:05:56.601Z,16.20
2023-05-22T05:06:28.468Z,16.20
2023-05-22T05:07:02.425Z,16.20
2023-05-22T05:07:37.664Z,16.30
2023-05-22T05:08:10.534Z,16.30
2023-05-22T05:08:44.323Z,16.30
2023-05-22T05:09:17.151Z,16.30
2023-05-22T05:09:49.199Z,16.30
2023-05-22T05:10:21.198Z,16.20
2023-05-22T05:10:54.016Z,16.20
2023-05-22T05:11:26.025Z,16.20
2023-05-22T05:11:58.217Z,16.30
2023-05-22T05:12:30.980Z,16.20
2023-05-22T05:13:02.967Z,16.20
2023-05-22T05:13:34.805Z,16.20
2023-05-22T05:14:07.591Z,16.20
2023-05-22T05:14:39.442Z,16.20
2023-05-22T05:15:11.409Z,16.20
2023-05-22T05:15:44.248Z,16.20
2023-05-22T05:16:16.261Z,16.20
2023-05-22T05:16:48.206Z,16.20
2023-05-22T05:17:22.282Z,16.20
2023-05-22T05:17:54.191Z,16.20
2023-05-22T05:18:26.533Z,16.30
2023-05-22T05:18:59.401Z,16.30
2023-05-22T05:19:34.166Z,16.30
2023-05-22T05:20:09.170Z,16.30
2023-05-22T05:20:41.975Z,16.30
2023-05-22T05:21:13.800Z,16.20
2023-05-22T05:21:45.831Z,16.30
2023-05-22T05:22:18.725Z,16.30
2023-05-22T05:22:51.034Z,16.30
2023-05-22T05:23:22.909Z,16.30
2023-05-22T05:23:55.762Z,16.40
2023-05-22T05:24:27.598Z,16.40
2023-05-22T05:25:00.405Z,16.40
2023-05-22T05:25:32.407Z,16.40
2023-05-22T05:26:05.421Z,16.40
2023-05-22T05:26:37.408Z,16.40
2023-05-22T05:27:09.249Z,16.40
2023-05-22T05:27:42.073Z,16.50
2023-05-22T05:28:13.903Z,16.50
2023-05-22T05:28:45.782Z,16.50
2023-05-22T05:29:18.676Z,16.50
2023-05-22T05:29:50.517Z,16.50
2023-05-22T05:30:22.450Z,16.50
2023-05-22T05:30:55.498Z,16.50
2023-05-22T05:31:27.352Z,16.50
2023-05-22T05:31:59.281Z,16.50
2023-05-22T05:32:32.243Z,16.50
2023-05-22T05:33:04.286Z,16.50
2023-05-22T05:33:37.138Z,16.60
2023-05-22T05:34:09.147Z,16.50
2023-05-22T05:34:42.380Z,16.60
2023-05-22T05:35:15.491Z,16.60
2023-05-22T05:35:50.194Z,16.60
2023-05-22T05:36:24.624Z,16.60
2023-05-22T05:36:57.238Z,16.70
2023-05-22T05:37:29.133Z,16.60
2023-05-22T05:38:01.987Z,16.70
2023-05-22T05:38:33.806Z,16.70
2023-05-22T05:39:05.704Z,16.70
2023-05-22T05:39:38.505Z,16.70
2023-05-22T05:40:11.167Z,16.80
2023-05-22T05:40:43.792Z,16.80
2023-05-22T05:41:16.720Z,16.80
2023-05-22T05:41:48.626Z,16.80
2023-05-22T05:42:20.455Z,16.80
2023-05-22T05:42:53.241Z,16.80
2023-05-22T05:43:25.500Z,16.90
2023-05-22T05:43:59.881Z,16.90
2023-05-22T05:44:32.758Z,16.90
2023-05-22T05:45:05.430Z,16.90
2023-05-22T05:45:37.325Z,16.90
2023-05-22T05:46:10.206Z,17.00
2023-05-22T05:46:42.176Z,16.90
2023-05-22T05:47:14.254Z,16.90
2023-05-22T05:47:47.123Z,17.00
2023-05-22T05:48:18.961Z,17.00
2023-05-22T05:48:50.851Z,17.00
2023-05-22T05:49:22.731Z,17.00
2023-05-22T05:49:58.235Z,17.00
2023-05-22T05:50:30.117Z,17.00
2023-05-22T05:51:01.983Z,17.00
2023-05-22T05:51:34.785Z,17.00
2023-05-22T05:52:07.887Z,17.00
2023-05-22T05:52:39.764Z,17.00
2023-05-22T05:53:12.568Z,17.00
2023-05-22T05:53:44.431Z,17.00
2023-05-22T05:54:17.199Z,17.00
2023-05-22T05:54:48.989Z,17.00
2023-05-22T05:55:21.808Z,16.90
2023-05-22T05:55:53.688Z,17.00
2023-05-22T05:56:25.640Z,17.00
2023-05-22T05:56:58.419Z,17.00
2023-05-22T05:57:31.943Z,17.00
2023-05-22T05:58:04.768Z,17.00
2023-05-22T05:58:36.626Z,17.00
2023-05-22T05:59:09.731Z,17.00
2023-05-22T05:59:41.593Z,17.00
2023-05-22T06:00:14.224Z,17.00
2023-05-22T06:00:47.013Z,17.00
2023-05-22T06:01:19.336Z,17.00
2023-05-22T06:01:51.393Z,17.00
2023-05-22T06:02:24.432Z,17.00
2023-05-22T06:02:56.422Z,17.00
2023-05-22T06:03:28.431Z,17.10
2023-05-22T06:04:03.170Z,17.10
2023-05-22T06:04:35.753Z,17.00
2023-05-22T06:05:10.149Z,17.10
2023-05-22T06:05:43.028Z,17.10
2023-05-22T06:06:15.289Z,17.10
2023-05-22T06:06:47.738Z,17.10
2023-05-22T06:07:20.872Z,17.10
2023-05-22T06:07:52.938Z,17.10
2023-05-22T06:08:24.787Z,17.20
2023-05-22T06:08:57.650Z,17.20
2023-05-22T06:09:29.493Z,17.20
2023-05-22T06:10:02.400Z,17.20
2023-05-22T06:10:34.619Z,17.20
2023-05-22T06:11:06.460Z,17.20
2023-05-22T06:11:39.272Z,17.30
2023-05-22T06:12:12.804Z,17.30
2023-05-22T06:12:45.922Z,17.30
2023-05-22T06:13:17.727Z,17.40
2023-05-22T06:13:49.593Z,17.30
2023-05-22T06:14:22.392Z,17.40
2023-05-22T06:14:54.252Z,17.40
2023-05-22T06:15:27.114Z,17.40
2023-05-22T06:16:01.315Z,17.40
2023-05-22T06:16:35.999Z,17.50
2023-05-22T06:17:09.113Z,17.50
2023-05-22T06:17:42.021Z,17.50
2023-05-22T06:18:13.901Z,17.50
2023-05-22T06:18:46.540Z,17.50
2023-05-22T06:19:19.445Z,17.50
2023-05-22T06:19:51.308Z,17.60
2023-05-22T06:20:25.085Z,17.60
2023-05-22T06:20:58.963Z,17.50
2023-05-22T06:21:31.130Z,17.60
2023-05-22T06:22:04.042Z,17.60
2023-05-22T06:22:36.019Z,17.60
2023-05-22T06:23:07.931Z,17.60
2023-05-22T06:23:40.897Z,17.60
2023-05-22T06:24:12.756Z,17.60
2023-05-22T06:24:45.600Z,17.60
2023-05-22T06:25:17.553Z,17.70
2023-05-22T06:25:50.355Z,17.70
2023-05-22T06:26:22.267Z,17.70
2023-05-22T06:26:55.460Z,17.70
2023-05-22T06:27:27.747Z,17.70
2023-05-22T06:28:00.758Z,17.80
2023-05-22T06:28:32.580Z,17.80
2023-05-22T06:29:06.129Z,17.80
2023-05-22T06:29:38.045Z,17.80
2023-05-22T06:30:10.195Z,17.80
2023-05-22T06:30:43.000Z,17.80
2023-05-22T06:31:15.333Z,17.80
2023-05-22T06:31:47.507Z,17.80
2023-05-22T06:32:20.742Z,17.80
2023-05-22T06:32:52.823Z,17.80
2023-05-22T06:33:24.923Z,17.80
2023-05-22T06:33:57.826Z,17.80
2023-05-22T06:34:29.781Z,17.80
2023-05-22T06:35:02.013Z,17.80
2023-05-22T06:35:36.378Z,17.80
2023-05-22T06:36:08.828Z,17.80
2023-05-22T06:36:40.819Z,17.90
2023-05-22T06:37:13.769Z,17.90
2023-05-22T06:37:45.709Z,17.90
2023-05-22T06:38:17.586Z,17.90
2023-05-22T06:38:51.795Z,17.90
2023-05-22T06:39:23.615Z,17.90
2023-05-22T06:39:55.467Z,18.00
2023-05-22T06:40:28.356Z,18.00
2023-05-22T06:41:00.442Z,18.00
2023-05-22T06:41:33.556Z,18.00
2023-05-22T06:42:05.965Z,18.00
2023-05-22T06:42:38.743Z,18.10
2023-05-22T06:43:10.604Z,18.10
2023-05-22T06:43:42.495Z,18.10
2023-05-22T06:44:15.257Z,18.20
2023-05-22T06:44:47.069Z,18.20
2023-05-22T06:45:19.821Z,18.20
2023-05-22T06:45:52.744Z,18.20
2023-05-22T06:46:26.143Z,18.20
2023-05-22T06:46:58.238Z,18.20
2023-05-22T06:47:32.136Z,18.20
2023-05-22T06:48:04.461Z,18.20
2023-05-22T06:48:36.524Z,18.20
2023-05-22T06:49:09.409Z,18.20
2023-05-22T06:49:41.332Z,18.20
2023-05-22T06:50:13.208Z,18.20
2023-05-22T06:50:47.352Z,18.20
2023-05-22T06:51:19.216Z,18.20
2023-05-22T06:51:51.561Z,18.20
2023-05-22T06:52:24.388Z,18.20
2023-05-22T06:52:56.545Z,18.20
2023-05-22T06:53:28.429Z,18.20
2023-05-22T06:54:01.291Z,18.30
2023-05-22T06:54:33.238Z,18.30
2023-05-22T06:55:05.789Z,18.30
2023-05-22T06:55:38.707Z,18.30
2023-05-22T06:56:10.527Z,18.40
2023-05-22T06:56:42.447Z,18.40
2023-05-22T06:57:15.230Z,18.40
2023-05-22T06:57:47.096Z,18.40
2023-05-22T06:58:18.939Z,18.40
2023-05-22T06:58:51.732Z,18.40
2023-05-22T06:59:23.562Z,18.40
2023-05-22T06:59:55.672Z,18.40
2023-05-22T07:00:28.626Z,18.50
2023-05-22T07:01:00.705Z,18.40
2023-05-22T07:01:34.092Z,18.50
2023-05-22T07:02:06.296Z,18.50
2023-05-22T07:02:38.278Z,18.50
2023-05-22T07:03:11.968Z,18.50
2023-05-22T07:03:43.906Z,18.60
2023-05-22T07:04:15.855Z,18.60
2023-05-22T07:04:48.636Z,18.60
2023-05-22T07:05:20.517Z,18.70
2023-05-22T07:05:57.540Z,18.70
2023-05-22T07:06:32.280Z,18.70
2023-05-22T07:07:04.463Z,18.70
2023-05-22T07:07:37.266Z,18.70
2023-05-22T07:08:09.096Z,18.80
2023-05-22T07:08:41.885Z,18.80
2023-05-22T07:09:15.634Z,18.80
2023-05-22T07:09:47.561Z,18.80
2023-05-22T07:10:20.588Z,18.80
2023-05-22T07:10:52.484Z,18.80